Time;durP1;ratioP1;P1;durP2;ratioP2;P2;SDS_P1;SDS_P2;PMS_P1;PMS_P2;Temp;Humidity;BMP_temperature;BMP_pressure;BME280_temperature;BME280_humidity;BME280_pressure;Samples;Min_cycle;Max_cycle;Signal;HPM_P1;HPM_P2
2021/12/29 00:01:03;;;;;;;8.25;0.80;;;;;;;8.52;100.00;98521.66;6326889;22;20021;-56
2021/12/29 00:04:06;;;;;;;4.53;0.68;;;;;;;8.40;100.00;98512.50;6336281;22;20034;-47
2021/12/29 00:07:12;;;;;;;0.57;0.20;;;;;;;8.27;100.00;98508.63;6335559;22;20343;-48
2021/12/29 00:10:18;;;;;;;1.33;0.57;;;;;;;8.10;100.00;98510.47;6335669;22;20073;-48
2021/12/29 00:13:28;;;;;;;0.63;0.52;;;;;;;8.00;100.00;98522.97;6334409;22;20435;-48
2021/12/29 00:16:35;;;;;;;3.10;0.73;;;;;;;8.05;100.00;98525.03;6336028;22;20030;-47
2021/12/29 00:19:39;;;;;;;1.15;0.35;;;;;;;8.07;100.00;98528.84;6336014;22;20085;-48
2021/12/29 00:22:43;;;;;;;0.63;0.50;;;;;;;7.99;100.00;98524.25;6335473;22;20029;-48
2021/12/29 00:25:47;;;;;;;0.75;0.75;;;;;;;7.99;100.00;98515.91;6335635;22;20045;-47
2021/12/29 00:28:50;;;;;;;2.28;0.47;;;;;;;7.96;100.00;98522.44;6324270;22;20026;-47
2021/12/29 00:31:53;;;;;;;0.10;0.10;;;;;;;7.87;100.00;98508.75;6324910;22;20029;-48
2021/12/29 00:34:57;;;;;;;3.13;0.82;;;;;;;7.90;100.00;98513.31;6325385;22;20029;-51
2021/12/29 00:38:03;;;;;;;0.20;0.10;;;;;;;7.80;100.00;98509.94;6326831;22;20025;-47
2021/12/29 00:41:06;;;;;;;0.45;0.45;;;;;;;7.80;100.00;98506.41;6335600;22;20018;-47
2021/12/29 00:44:10;;;;;;;2.30;0.73;;;;;;;7.76;100.00;98516.94;6335468;22;20018;-47
2021/12/29 00:47:13;;;;;;;1.10;0.57;;;;;;;7.75;100.00;98509.91;6328852;22;20449;-47
2021/12/29 00:50:18;;;;;;;1.45;0.40;;;;;;;7.70;100.00;98505.81;6336094;22;20025;-47
2021/12/29 00:53:21;;;;;;;0.70;0.32;;;;;;;7.75;100.00;98501.59;6335291;22;20022;-47
2021/12/29 00:56:24;;;;;;;0.85;0.28;;;;;;;7.71;100.00;98489.97;6337049;22;20061;-47
2021/12/29 00:59:28;;;;;;;1.13;0.85;;;;;;;7.71;100.00;98499.00;6337467;22;20022;-48
2021/12/29 01:02:32;;;;;;;3.55;0.77;;;;;;;7.65;100.00;98487.13;6336726;22;20021;-48
2021/12/29 01:05:37;;;;;;;9.27;0.43;;;;;;;7.67;100.00;98489.41;6336290;22;20029;-48
2021/12/29 01:08:40;;;;;;;1.80;0.38;;;;;;;7.59;100.00;98508.47;6334884;22;20033;-48
2021/12/29 01:11:44;;;;;;;3.53;0.82;;;;;;;7.65;100.00;98512.81;6335150;22;20025;-47
2021/12/29 01:14:53;;;;;;;0.50;0.50;;;;;;;7.57;100.00;98522.81;6323005;22;20347;-47
2021/12/29 01:17:58;;;;;;;2.00;0.50;;;;;;;7.56;100.00;98521.28;6334705;22;20038;-48
2021/12/29 01:21:02;;;;;;;0.70;0.20;;;;;;;7.56;100.00;98524.06;6335198;22;20025;-48
2021/12/29 01:24:07;;;;;;;0.55;0.30;;;;;;;7.56;100.00;98524.06;6335596;22;20021;-49
2021/12/29 01:27:10;;;;;;;0.13;0.13;;;;;;;7.65;100.00;98526.66;6334966;22;20351;-48
2021/12/29 01:30:14;;;;;;;1.00;0.80;;;;;;;7.67;100.00;98536.53;6334973;22;20034;-47
2021/12/29 01:33:19;;;;;;;1.30;0.73;;;;;;;7.65;100.00;98531.44;6334380;22;20025;-48
2021/12/29 01:36:22;;;;;;;1.40;0.88;;;;;;;7.54;100.00;98526.56;6335864;22;20026;-48
2021/12/29 01:39:26;;;;;;;0.82;0.45;;;;;;;7.49;100.00;98535.56;6336934;22;20470;-48
2021/12/29 01:42:29;;;;;;;0.10;0.10;;;;;;;7.55;100.00;98532.84;6336012;22;20026;-48
2021/12/29 01:45:35;;;;;;;1.65;0.73;;;;;;;7.38;100.00;98524.38;6335905;22;20030;-47
2021/12/29 01:48:39;;;;;;;0.82;0.32;;;;;;;7.38;100.00;98524.38;6337543;22;20038;-47
2021/12/29 01:52:01;;;;;;;0.75;0.30;;;;;;;7.36;100.00;98520.56;6336830;22;20473;-47
2021/12/29 01:55:07;;;;;;;3.72;0.93;;;;;;;7.38;100.00;98535.44;6335437;22;20026;-47
2021/12/29 01:58:10;;;;;;;3.95;0.88;;;;;;;7.52;100.00;98536.59;6336299;22;20022;-47
2021/12/29 02:01:14;;;;;;;3.13;0.50;;;;;;;7.55;100.00;98533.63;6337125;22;20064;-47
2021/12/29 02:04:18;;;;;;;6.15;0.55;;;;;;;7.54;100.00;98532.09;6336729;22;20026;-47
2021/12/29 02:07:22;;;;;;;1.40;0.77;;;;;;;7.48;100.00;98531.28;6336563;22;20023;-47
2021/12/29 02:10:28;;;;;;;4.88;0.77;;;;;;;7.48;100.00;98525.72;6318736;22;20026;-47
2021/12/29 02:13:32;;;;;;;0.47;0.40;;;;;;;7.61;100.00;98514.28;6319906;22;20065;-47
2021/12/29 02:16:36;;;;;;;1.35;1.10;;;;;;;7.75;100.00;98502.34;6337646;22;20029;-47
2021/12/29 02:19:46;;;;;;;6.22;0.68;;;;;;;7.87;100.00;98500.44;6337129;22;20030;-47
2021/12/29 02:23:01;;;;;;;3.60;0.60;;;;;;;7.92;100.00;98499.72;6336715;22;20037;-47
2021/12/29 02:26:04;;;;;;;0.57;0.30;;;;;;;7.97;100.00;98490.72;6336471;22;20026;-47
2021/12/29 02:29:10;;;;;;;0.85;0.40;;;;;;;8.03;100.00;98474.88;6337138;22;20034;-48
2021/12/29 02:32:14;;;;;;;3.35;0.63;;;;;;;8.05;100.00;98469.59;6336968;22;20030;-47
2021/12/29 02:35:17;;;;;;;1.23;0.30;;;;;;;8.08;100.00;98485.22;6337036;22;20045;-47
2021/12/29 02:38:25;;;;;;;0.35;0.35;;;;;;;8.06;100.00;98487.72;6335344;22;20029;-48
2021/12/29 02:41:31;;;;;;;0.55;0.32;;;;;;;7.99;100.00;98488.19;6338165;22;20030;-48
2021/12/29 02:44:40;;;;;;;0.52;0.28;;;;;;;8.03;100.00;98488.72;6336917;22;20046;-47
2021/12/29 02:47:44;;;;;;;0.65;0.43;;;;;;;8.10;100.00;98493.84;6336436;22;20034;-48
2021/12/29 02:50:47;;;;;;;0.30;0.30;;;;;;;8.19;100.00;98521.38;6335980;22;20026;-47
2021/12/29 02:53:51;;;;;;;0.20;0.17;;;;;;;8.31;100.00;98503.63;6325061;22;20029;-48
2021/12/29 02:56:55;;;;;;;0.63;0.30;;;;;;;8.28;100.00;98505.34;6326003;22;20030;-47
2021/12/29 02:59:59;;;;;;;1.95;0.20;;;;;;;8.34;100.00;98502.59;6336805;22;20025;-47
2021/12/29 03:03:12;;;;;;;1.17;0.88;;;;;;;8.37;100.00;98490.53;6336407;22;20030;-47
2021/12/29 03:06:16;;;;;;;1.00;0.15;;;;;;;8.44;100.00;98479.00;6336110;22;20031;-47
2021/12/29 03:09:19;;;;;;;0.50;0.40;;;;;;;8.50;100.00;98479.03;6315919;22;20359;-48
2021/12/29 03:12:23;;;;;;;1.38;0.28;;;;;;;8.50;100.00;98460.38;6337230;22;20025;-48
2021/12/29 03:15:26;;;;;;;0.73;0.28;;;;;;;8.24;100.00;98459.66;6336622;22;20026;-48
2021/12/29 03:18:30;;;;;;;0.10;0.00;;;;;;;8.63;100.00;98457.91;6338373;22;20038;-48
2021/12/29 03:21:35;;;;;;;0.93;0.60;;;;;;;8.48;100.00;98468.44;6337047;22;20030;-48
2021/12/29 03:24:38;;;;;;;5.70;1.52;;;;;;;8.29;100.00;98456.19;6317684;22;20367;-49
2021/12/29 03:27:42;;;;;;;1.05;0.47;;;;;;;8.36;100.00;98444.63;6336592;22;20049;-48
2021/12/29 03:30:50;;;;;;;0.17;0.17;;;;;;;8.40;100.00;98434.09;6336301;22;20454;-48
2021/12/29 03:33:54;;;;;;;1.27;0.20;;;;;;;8.79;100.00;98420.41;6336730;22;20033;-48
2021/12/29 03:36:57;;;;;;;0.43;0.43;;;;;;;8.62;100.00;98406.44;6317173;22;20030;-48
2021/12/29 03:40:01;;;;;;;1.60;0.65;;;;;;;8.71;100.00;98409.00;6336325;22;20045;-47
2021/12/29 03:43:06;;;;;;;1.55;0.20;;;;;;;8.71;100.00;98411.78;6336508;22;20365;-48
2021/12/29 03:46:11;;;;;;;1.55;0.52;;;;;;;8.72;100.00;98416.09;6336271;22;20477;-47
2021/12/29 03:49:15;;;;;;;0.82;0.73;;;;;;;8.75;100.00;98420.63;6335812;22;20034;-48
2021/12/29 03:52:18;;;;;;;0.17;0.10;;;;;;;8.71;100.00;98420.13;6336585;22;20026;-47
2021/12/29 03:55:21;;;;;;;17.20;0.65;;;;;;;8.76;100.00;98422.16;6335381;22;20502;-47
2021/12/29 03:58:27;;;;;;;1.50;0.40;;;;;;;8.73;100.00;98405.72;6337875;22;20030;-47
2021/12/29 04:01:31;;;;;;;1.15;1.05;;;;;;;8.73;100.00;98400.94;6337054;22;20462;-48
2021/12/29 04:04:35;;;;;;;3.85;0.50;;;;;;;8.73;100.00;98383.53;6336712;22;20026;-48
2021/12/29 04:07:39;;;;;;;0.50;0.50;;;;;;;8.66;100.00;98384.78;6336510;22;20057;-48
2021/12/29 04:10:42;;;;;;;3.42;0.40;;;;;;;8.65;100.00;98380.47;6335529;22;20029;-48
2021/12/29 04:13:47;;;;;;;0.47;0.47;;;;;;;8.64;100.00;98381.00;6335439;22;20029;-48
2021/12/29 04:16:51;;;;;;;2.28;0.40;;;;;;;8.61;100.00;98388.28;6335819;22;20030;-47
2021/12/29 04:23:18;;;;;;;0.55;0.25;;;;;;;8.62;100.00;98381.47;6334906;22;20030;-48
2021/12/29 04:26:21;;;;;;;2.72;0.45;;;;;;;8.69;100.00;98375.44;6336024;22;20972;-48
2021/12/29 04:29:25;;;;;;;0.20;0.20;;;;;;;8.68;100.00;98371.16;6337149;22;20034;-48
2021/12/29 04:32:29;;;;;;;0.10;0.10;;;;;;;8.65;100.00;98363.06;6316212;22;20030;-47
2021/12/29 04:35:32;;;;;;;3.60;0.82;;;;;;;8.61;100.00;98371.63;6337075;22;20353;-48
2021/12/29 04:38:35;;;;;;;4.47;0.70;;;;;;;8.71;100.00;98388.81;6336714;22;20026;-48
2021/12/29 04:41:39;;;;;;;4.13;1.17;;;;;;;8.78;100.00;98375.25;6336640;22;20362;-47
2021/12/29 04:44:43;;;;;;;1.55;0.50;;;;;;;8.90;100.00;98382.34;6335866;22;20025;-47
2021/12/29 04:47:48;;;;;;;2.30;0.38;;;;;;;8.90;100.00;98374.00;6335866;22;20033;-48
2021/12/29 04:51:03;;;;;;;2.25;0.52;;;;;;;8.97;100.00;98356.88;6335842;22;20025;-47
2021/12/29 04:54:07;;;;;;;1.85;0.40;;;;;;;9.03;100.00;98340.25;6335814;22;20022;-47
2021/12/29 04:57:11;;;;;;;0.68;0.43;;;;;;;9.01;100.00;98331.63;6335403;22;20025;-47
2021/12/29 05:00:15;;;;;;;1.30;0.40;;;;;;;9.02;100.00;98327.59;6335482;22;20030;-47
2021/12/29 05:03:20;;;;;;;0.60;0.57;;;;;;;9.10;100.00;98318.28;6334426;22;20034;-48
2021/12/29 05:09:45;;;;;;;0.63;0.20;;;;;;;8.98;100.00;98316.75;6322773;22;20026;-47
2021/12/29 05:12:49;;;;;;;2.03;0.80;;;;;;;9.07;100.00;98327.59;6323786;22;20026;-48
2021/12/29 05:15:55;;;;;;;0.20;0.13;;;;;;;9.25;100.00;98323.59;6324328;22;20339;-49
2021/12/29 05:18:58;;;;;;;3.13;0.60;;;;;;;9.27;100.00;98334.94;6325583;22;20030;-48
2021/12/29 05:22:02;;;;;;;3.70;0.90;;;;;;;9.39;100.00;98328.16;6337279;22;20034;-47
2021/12/29 05:25:06;;;;;;;1.75;0.40;;;;;;;9.46;100.00;98324.88;6337194;22;20351;-47
2021/12/29 05:28:10;;;;;;;1.40;0.75;;;;;;;9.54;100.00;98327.91;6337430;22;20034;-47
2021/12/29 05:31:13;;;;;;;0.75;0.30;;;;;;;9.61;100.00;98319.06;6337529;22;20030;-47
2021/12/29 05:34:16;;;;;;;0.25;0.17;;;;;;;9.61;100.00;98310.72;6337265;22;20022;-47
2021/12/29 05:37:20;;;;;;;1.05;0.95;;;;;;;9.33;100.00;98313.50;6336275;22;20440;-48
2021/12/29 05:40:24;;;;;;;2.72;0.90;;;;;;;9.26;100.00;98296.56;6337869;22;20034;-48
2021/12/29 05:43:31;;;;;;;1.75;0.43;;;;;;;9.42;100.00;98285.47;6338331;22;20026;-48
2021/12/29 05:46:34;;;;;;;1.00;0.50;;;;;;;9.45;100.00;98281.69;6337922;22;20025;-47
2021/12/29 05:49:38;;;;;;;6.40;0.68;;;;;;;9.38;100.00;98275.84;6337381;22;20038;-48
2021/12/29 05:52:42;;;;;;;4.82;0.55;;;;;;;9.32;100.00;98264.00;6337260;22;20042;-48
2021/12/29 05:55:45;;;;;;;0.63;0.30;;;;;;;9.10;100.00;98254.41;6336880;22;20030;-48
2021/12/29 05:58:49;;;;;;;1.15;0.40;;;;;;;9.56;100.00;98250.34;6325097;22;20029;-48
2021/12/29 06:01:52;;;;;;;1.40;0.80;;;;;;;9.28;100.00;98249.59;6325184;22;20025;-48
2021/12/29 06:04:56;;;;;;;2.20;0.43;;;;;;;9.29;100.00;98243.53;6326199;22;20030;-47
2021/12/29 06:07:59;;;;;;;0.40;0.25;;;;;;;9.29;100.00;98253.91;6327036;22;20026;-47
2021/12/29 06:11:02;;;;;;;0.70;0.43;;;;;;;9.31;100.00;98254.16;6337168;22;20025;-47
2021/12/29 06:14:06;;;;;;;6.97;1.17;;;;;;;9.51;100.00;98256.66;6337598;22;20030;-47
2021/12/29 06:17:09;;;;;;;2.03;0.77;;;;;;;9.40;100.00;98246.31;6336852;22;20049;-47
2021/12/29 06:20:13;;;;;;;3.70;0.52;;;;;;;9.31;100.00;98245.84;6336415;22;20034;-47
2021/12/29 06:23:17;;;;;;;0.52;0.35;;;;;;;9.27;100.00;98243.28;6336639;22;20037;-47
2021/12/29 06:26:20;;;;;;;3.85;1.50;;;;;;;9.18;100.00;98238.75;6335684;22;20351;-48
2021/12/29 06:29:24;;;;;;;1.35;0.60;;;;;;;9.22;100.00;98224.63;6337671;22;20038;-48
2021/12/29 06:32:28;;;;;;;2.30;1.08;;;;;;;9.28;100.00;98227.38;6336324;22;20030;-48
2021/12/29 06:35:31;;;;;;;3.92;0.30;;;;;;;9.34;100.00;98223.34;6337890;22;20046;-49
2021/12/29 06:38:35;;;;;;;1.23;0.80;;;;;;;9.29;100.00;98234.47;6337289;22;20065;-49
2021/12/29 06:41:39;;;;;;;7.72;1.05;;;;;;;9.21;100.00;98217.53;6336468;22;20054;-48
2021/12/29 06:44:44;;;;;;;6.85;1.45;;;;;;;9.26;100.00;98210.47;6335760;22;20030;-48
2021/12/29 06:47:47;;;;;;;2.15;0.95;;;;;;;9.34;100.00;98209.44;6336585;22;20030;-48
2021/12/29 06:50:51;;;;;;;2.38;0.68;;;;;;;9.35;100.00;98196.31;6336555;22;20479;-48
2021/12/29 06:53:54;;;;;;;0.90;0.40;;;;;;;9.33;100.00;98199.63;6336508;22;20034;-48
2021/12/29 06:56:59;;;;;;;2.95;0.40;;;;;;;9.32;100.00;98200.09;6336416;22;20031;-48
2021/12/29 07:00:04;;;;;;;4.20;0.85;;;;;;;9.30;100.00;98197.84;6336550;22;20030;-47
2021/12/29 07:03:08;;;;;;;0.35;0.35;;;;;;;9.32;100.00;98175.88;6336512;22;20029;-47
2021/12/29 07:06:11;;;;;;;0.32;0.30;;;;;;;9.38;100.00;98164.72;6329747;22;20025;-47
2021/12/29 07:09:14;;;;;;;2.40;1.05;;;;;;;9.44;100.00;98162.72;6330656;22;20029;-47
2021/12/29 07:12:19;;;;;;;0.93;0.85;;;;;;;9.45;100.00;98147.53;6330433;22;20343;-48
2021/12/29 07:15:23;;;;;;;1.48;1.08;;;;;;;9.46;100.00;98143.53;6336940;22;20026;-48
2021/12/29 07:18:26;;;;;;;1.00;0.90;;;;;;;9.48;100.00;98129.88;6338222;22;20470;-48
2021/12/29 07:21:30;;;;;;;0.52;0.30;;;;;;;9.45;100.00;98117.00;6337056;22;20029;-48
2021/12/29 07:24:34;;;;;;;4.53;1.13;;;;;;;9.40;100.00;98090.00;6337046;22;20030;-47
2021/12/29 07:27:38;;;;;;;1.33;0.68;;;;;;;9.41;100.00;98063.72;6337086;22;20049;-47
2021/12/29 07:30:41;;;;;;;2.22;0.70;;;;;;;9.48;100.00;98046.50;6334839;22;20033;-47
2021/12/29 07:33:45;;;;;;;2.40;0.60;;;;;;;9.49;100.00;98037.66;6323328;22;20025;-47
2021/12/29 07:36:49;;;;;;;14.35;2.33;;;;;;;9.52;100.00;98033.09;6328999;22;20501;-47
2021/12/29 07:39:53;;;;;;;2.28;1.20;;;;;;;9.62;100.00;98034.31;6334865;22;20030;-47
2021/12/29 07:42:56;;;;;;;4.43;0.25;;;;;;;9.71;100.00;98025.69;6324858;22;20030;-47
2021/12/29 07:46:00;;;;;;;1.85;0.40;;;;;;;9.71;100.00;98042.34;6325510;22;20081;-47
2021/12/29 07:49:04;;;;;;;4.22;0.80;;;;;;;9.82;100.00;98037.50;6336098;22;20344;-47
2021/12/29 07:52:08;;;;;;;0.40;0.25;;;;;;;9.86;100.00;98020.53;6336059;22;20038;-47
2021/12/29 07:55:12;;;;;;;0.28;0.28;;;;;;;9.83;100.00;98022.31;6336000;22;20021;-47
2021/12/29 07:58:16;;;;;;;1.63;0.80;;;;;;;9.91;100.00;98008.63;6335950;22;20018;-47
2021/12/29 08:01:19;;;;;;;4.93;0.40;;;;;;;9.90;100.00;98023.78;6335321;22;20029;-48
2021/12/29 08:04:23;;;;;;;1.75;0.32;;;;;;;9.99;100.00;98017.91;6337161;22;20030;-47
2021/12/29 08:07:26;;;;;;;0.43;0.30;;;;;;;10.01;100.00;98012.59;6336816;22;20025;-47
2021/12/29 08:10:30;;;;;;;5.10;0.65;;;;;;;10.06;100.00;97999.91;6337258;22;20042;-47
2021/12/29 08:13:34;;;;;;;1.85;0.82;;;;;;;10.09;100.00;97988.50;6336262;22;20033;-47
2021/12/29 08:16:38;;;;;;;0.85;0.25;;;;;;;10.17;100.00;98006.19;6335939;22;20501;-47
2021/12/29 08:19:42;;;;;;;4.65;0.52;;;;;;;10.13;100.00;98014.06;6336163;22;20030;-47
2021/12/29 08:22:46;;;;;;;1.65;0.60;;;;;;;10.21;100.00;98031.69;6299254;22;20030;-47
2021/12/29 08:25:50;;;;;;;0.63;0.47;;;;;;;10.27;100.00;98028.84;6335591;22;20029;-48
2021/12/29 08:28:57;;;;;;;0.63;0.40;;;;;;;10.20;100.00;98046.88;6335290;22;20026;-47
2021/12/29 08:32:01;;;;;;;3.60;0.47;;;;;;;10.27;100.00;98015.72;6331061;22;20026;-47
2021/12/29 08:35:05;;;;;;;4.63;0.35;;;;;;;10.26;100.00;98008.66;6336000;22;20025;-47
2021/12/29 08:38:08;;;;;;;0.40;0.20;;;;;;;10.26;100.00;98002.31;6316891;22;20021;-47
2021/12/29 08:41:12;;;;;;;0.57;0.55;;;;;;;10.27;100.00;97993.47;6335836;22;20025;-47
2021/12/29 08:44:16;;;;;;;1.85;0.80;;;;;;;10.36;100.00;97997.94;6335757;22;20041;-48
2021/12/29 08:47:20;;;;;;;0.30;0.30;;;;;;;10.52;100.00;97992.25;6334636;22;20323;-47
2021/12/29 08:50:31;;;;;;;0.20;0.20;;;;;;;10.55;100.00;97991.19;6335898;22;20030;-47
2021/12/29 08:53:36;;;;;;;0.73;0.38;;;;;;;10.59;100.00;97988.09;6335979;22;20069;-47
2021/12/29 08:56:39;;;;;;;0.73;0.10;;;;;;;10.66;100.00;97963.25;6335569;22;20030;-48
2021/12/29 08:59:43;;;;;;;0.30;0.30;;;;;;;10.68;100.00;97955.13;6336101;22;20455;-48
2021/12/29 09:02:48;;;;;;;1.67;0.82;;;;;;;10.71;100.00;97950.53;6335620;22;20463;-47
2021/12/29 09:05:51;;;;;;;1.02;0.45;;;;;;;10.68;100.00;97931.34;6335654;22;20470;-48
2021/12/29 09:08:55;;;;;;;2.10;0.20;;;;;;;10.80;100.00;97922.34;6324488;22;20610;-48
2021/12/29 09:11:59;;;;;;;1.17;0.22;;;;;;;10.78;100.00;97930.47;6326421;22;20026;-47
2021/12/29 09:15:06;;;;;;;0.38;0.35;;;;;;;10.82;100.00;97924.59;6327553;22;20470;-48
2021/12/29 09:18:11;;;;;;;1.35;0.45;;;;;;;10.85;100.00;97923.56;6328896;22;20027;-47
2021/12/29 09:21:17;;;;;;;0.10;0.10;;;;;;;11.05;100.00;97914.69;6328719;22;20027;-47
2021/12/29 09:24:21;;;;;;;0.10;0.10;;;;;;;11.18;100.00;97917.56;6334435;22;20022;-48
2021/12/29 09:27:25;;;;;;;0.10;0.10;;;;;;;11.27;100.00;97919.97;6336145;22;20030;-48
2021/12/29 09:30:33;;;;;;;0.52;0.10;;;;;;;11.38;100.00;97900.31;6336704;22;20030;-53
2021/12/29 09:33:38;;;;;;;1.20;0.45;;;;;;;11.46;100.00;97904.00;6335987;22;20026;-53
2021/12/29 09:36:41;;;;;;;0.10;0.10;;;;;;;11.55;100.00;97894.50;6335446;22;20022;-53
2021/12/29 09:39:45;;;;;;;5.97;0.40;;;;;;;11.52;100.00;97907.44;6322299;22;20026;-55
2021/12/29 09:42:51;;;;;;;0.10;0.10;;;;;;;11.44;100.00;97912.13;6323186;22;20026;-54
2021/12/29 09:58:15;;;;;;;1.55;0.52;;;;;;;11.96;100.00;97876.13;5073116;27;20858;-48
2021/12/29 10:01:20;;;;;;;0.82;0.68;;;;;;;12.03;100.00;97872.69;5047746;28;20544;-49
2021/12/29 10:04:25;;;;;;;0.93;0.85;;;;;;;12.23;100.00;97867.78;5033564;28;20081;-48
2021/12/29 10:07:28;;;;;;;0.82;0.32;;;;;;;12.25;100.00;97865.22;5040979;28;20060;-48
2021/12/29 10:10:34;;;;;;;0.25;0.25;;;;;;;12.34;100.00;97868.34;5047309;28;20052;-51
2021/12/29 10:13:41;;;;;;;4.22;1.00;;;;;;;12.55;100.00;97872.00;5048190;28;20067;-49
2021/12/29 10:16:49;;;;;;;5.15;1.35;;;;;;;12.56;100.00;97872.75;5046812;28;20057;-48
2021/12/29 10:20:06;;;;;;;5.80;0.93;;;;;;;12.58;100.00;97870.91;5046789;28;20413;-48
2021/12/29 10:23:16;;;;;;;0.20;0.10;;;;;;;12.51;100.00;97874.38;5047556;28;20056;-48
2021/12/29 10:26:24;;;;;;;1.55;1.15;;;;;;;12.44;100.00;97874.25;5046298;28;20405;-48
2021/12/29 10:29:28;;;;;;;4.93;0.75;;;;;;;12.60;100.00;97862.00;5048060;28;20052;-48
2021/12/29 10:32:31;;;;;;;1.80;1.40;;;;;;;12.70;100.00;97863.84;5047979;28;20060;-48
2021/12/29 10:35:35;;;;;;;0.85;0.43;;;;;;;12.88;100.00;97865.75;5047354;28;20076;-48
2021/12/29 10:38:40;;;;;;;0.40;0.40;;;;;;;12.92;100.00;97866.19;5047423;28;20401;-48
2021/12/29 10:41:55;;;;;;;3.75;1.55;;;;;;;13.04;100.00;97861.09;5047539;28;20064;-48
2021/12/29 10:45:00;;;;;;;0.20;0.20;;;;;;;13.09;100.00;97863.06;5027066;28;20060;-48
2021/12/29 10:48:34;;;;;;;2.35;0.50;;;;;;;13.16;100.00;97858.84;5042969;28;20052;-48
2021/12/29 10:51:44;;;;;;;1.35;0.60;;;;;;;13.27;100.00;97862.16;5046871;28;20064;-48
2021/12/29 10:54:51;;;;;;;1.85;0.30;;;;;;;13.44;100.00;97862.53;5047421;28;20056;-47
2021/12/29 10:58:05;;;;;;;1.73;0.20;;;;;;;13.41;100.00;97860.03;5046214;28;20052;-48
2021/12/29 11:01:11;;;;;;;0.45;0.22;;;;;;;13.56;100.00;97846.22;5046774;28;20056;-48
2021/12/29 11:04:16;;;;;;;0.28;0.10;;;;;;;13.60;100.00;97849.41;5040162;28;20056;-48
2021/12/29 11:07:27;;;;;;;0.57;0.10;;;;;;;13.68;100.00;97865.00;5045847;28;20417;-49
2021/12/29 11:10:31;;;;;;;7.82;0.55;;;;;;;13.66;100.00;97859.19;5014167;28;20513;-48
2021/12/29 11:13:35;;;;;;;0.30;0.22;;;;;;;13.67;100.00;97883.06;5013874;28;20061;-48
2021/12/29 11:16:40;;;;;;;0.75;0.22;;;;;;;13.74;100.00;97858.50;5013696;28;20048;-48
2021/12/29 11:19:58;;;;;;;0.10;0.10;;;;;;;13.83;100.00;97832.84;5013311;28;20061;-48
2021/12/29 11:23:15;;;;;;;0.35;0.20;;;;;;;13.91;100.00;97845.63;5013882;28;20060;-48
2021/12/29 11:26:28;;;;;;;0.20;0.10;;;;;;;13.99;100.00;97840.09;5012897;28;20505;-48
2021/12/29 11:29:31;;;;;;;0.38;0.38;;;;;;;14.12;100.00;97837.22;5013486;28;20061;-48
2021/12/29 11:32:37;;;;;;;0.20;0.20;;;;;;;14.06;100.00;97865.34;5013513;28;20088;-48
2021/12/29 11:35:44;;;;;;;1.95;0.10;;;;;;;13.95;100.00;97879.59;5013335;28;20065;-48
2021/12/29 11:38:47;;;;;;;0.10;0.10;;;;;;;13.94;100.00;97880.91;5013068;28;20080;-48
2021/12/29 11:41:51;;;;;;;1.20;0.43;;;;;;;13.94;100.00;97885.75;5013460;28;20069;-48
2021/12/29 11:44:55;;;;;;;0.47;0.22;;;;;;;14.27;100.00;97884.91;5001309;28;20056;-48
2021/12/29 11:47:58;;;;;;;0.47;0.20;;;;;;;14.40;100.00;97884.84;5012648;28;20069;-48
2021/12/29 11:51:03;;;;;;;0.10;0.10;;;;;;;14.49;100.00;97875.94;5011001;28;20081;-48
2021/12/29 11:54:16;;;;;;;0.00;0.00;;;;;;;14.56;100.00;97880.84;5012930;28;20582;-48
2021/12/29 11:57:25;;;;;;;1.02;0.98;;;;;;;14.58;100.00;97897.09;5012330;28;20053;-48
2021/12/29 12:00:29;;;;;;;0.20;0.10;;;;;;;14.56;100.00;97908.84;5013436;28;20061;-48
2021/12/29 12:03:38;;;;;;;1.77;0.17;;;;;;;14.59;100.00;97921.03;5005693;28;20524;-48
2021/12/29 12:06:43;;;;;;;0.20;0.20;;;;;;;14.31;100.00;97939.28;4997556;28;20057;-48
2021/12/29 12:09:48;;;;;;;4.38;0.32;;;;;;;14.38;100.00;97957.44;5012675;28;20060;-48
2021/12/29 12:12:53;;;;;;;0.25;0.10;;;;;;;14.43;100.00;97971.31;5012636;28;20061;-48
2021/12/29 12:16:07;;;;;;;1.65;0.20;;;;;;;14.51;100.00;97973.44;5012194;28;20076;-48
2021/12/29 12:19:17;;;;;;;0.10;0.10;;;;;;;14.58;100.00;97973.50;5011685;28;20049;-48
2021/12/29 12:22:20;;;;;;;0.75;0.40;;;;;;;14.70;100.00;97968.34;5012100;28;20413;-48
2021/12/29 12:25:29;;;;;;;1.20;0.38;;;;;;;14.84;100.00;97980.97;5011690;28;20069;-48
2021/12/29 12:28:49;;;;;;;0.10;0.10;;;;;;;14.90;100.00;97985.13;5011972;28;20064;-48
2021/12/29 12:32:01;;;;;;;1.42;0.10;;;;;;;14.99;100.00;98004.25;5011282;28;20409;-48
2021/12/29 12:35:05;;;;;;;6.78;1.35;;;;;;;15.16;100.00;98010.13;5011810;28;20057;-56
2021/12/29 12:38:22;;;;;;;0.15;0.15;;;;;;;15.25;100.00;98022.16;5011680;28;20065;-57
2021/12/29 12:41:36;;;;;;;4.15;1.10;;;;;;;15.33;100.00;98006.91;5011804;28;20406;-56
2021/12/29 12:44:40;;;;;;;4.38;1.30;;;;;;;15.33;100.00;98022.97;5011877;28;20061;-57
2021/12/29 12:47:44;;;;;;;0.30;0.25;;;;;;;15.33;100.00;98034.19;5011835;28;20069;-57
2021/12/29 12:50:47;;;;;;;2.95;0.52;;;;;;;15.25;100.00;98034.13;5023301;28;20060;-57
2021/12/29 12:53:51;;;;;;;5.95;0.88;;;;;;;15.17;100.00;98050.91;5032273;28;20065;-57
2021/12/29 12:56:57;;;;;;;0.40;0.40;;;;;;;15.07;100.00;98066.72;5031407;28;20064;-57
2021/12/29 13:00:27;;;;;;;0.40;0.40;;;;;;;15.05;100.00;98069.31;5031201;28;20064;-57
2021/12/29 13:03:31;;;;;;;4.05;0.35;;;;;;;15.00;100.00;98070.22;5030730;28;20056;-57
2021/12/29 13:06:35;;;;;;;0.10;0.05;;;;;;;14.97;100.00;98071.31;5027786;28;20080;-56
2021/12/29 13:09:47;;;;;;;1.27;0.35;;;;;;;15.00;100.00;98089.84;5031188;28;20052;-56
2021/12/29 13:12:57;;;;;;;11.65;0.73;;;;;;;14.98;100.00;98084.03;5024389;28;20052;-57
2021/12/29 13:16:07;;;;;;;0.40;0.22;;;;;;;14.93;100.00;98098.94;5025540;28;20061;-57
2021/12/29 13:19:10;;;;;;;7.68;1.45;;;;;;;14.94;100.00;98110.91;5007332;28;20061;-57
2021/12/29 13:22:26;;;;;;;6.75;0.88;;;;;;;14.92;100.00;98105.09;5011645;28;20061;-57
2021/12/29 13:25:31;;;;;;;0.40;0.15;;;;;;;14.80;100.00;98117.88;5028110;28;20053;-56
2021/12/29 13:28:35;;;;;;;7.20;1.05;;;;;;;14.79;100.00;98111.50;5031615;28;20056;-56
2021/12/29 13:31:39;;;;;;;0.75;0.60;;;;;;;14.71;100.00;98110.69;5031090;28;20412;-57
2021/12/29 13:34:42;;;;;;;1.25;0.55;;;;;;;14.64;100.00;98128.19;5031414;28;20076;-56
2021/12/29 13:37:46;;;;;;;3.60;0.52;;;;;;;14.50;100.00;98140.00;5030931;28;20409;-56
2021/12/29 13:41:08;;;;;;;0.38;0.32;;;;;;;14.47;100.00;98161.44;4998643;28;20061;-56
2021/12/29 13:44:12;;;;;;;9.48;0.60;;;;;;;14.37;100.00;98169.56;5005690;28;20401;-56
2021/12/29 13:47:22;;;;;;;6.43;0.50;;;;;;;14.39;100.00;98166.97;5008815;28;20064;-47
2021/12/29 13:50:26;;;;;;;1.83;0.37;;;;;;;14.27;100.00;98184.53;5036126;28;20064;-47
2021/12/29 13:53:34;;;;;;;1.00;0.63;;;;;;;14.14;100.00;98212.53;5031110;28;20488;-47
2021/12/29 13:56:55;;;;;;;12.85;0.70;;;;;;;14.09;100.00;98225.34;5031713;28;20488;-47
2021/12/29 13:59:58;;;;;;;2.10;0.77;;;;;;;14.24;100.00;98224.78;5014176;28;20057;-47
2021/12/29 14:03:03;;;;;;;0.30;0.20;;;;;;;14.13;100.00;98236.22;5010408;28;20065;-47
2021/12/29 14:06:10;;;;;;;0.38;0.38;;;;;;;14.09;100.00;98218.97;5006972;28;20058;-47
2021/12/29 14:09:14;;;;;;;6.80;0.85;;;;;;;14.09;100.00;98235.78;5007379;28;20073;-47
2021/12/29 14:12:25;;;;;;;6.32;1.65;;;;;;;13.98;100.00;98250.00;5007911;28;20061;-47
2021/12/29 14:15:30;;;;;;;;;;;;;;;13.80;100.00;98253.63;5011303;28;20065;-47
2021/12/29 14:18:41;;;;;;;6.00;2.13;;;;;;;13.61;100.00;98254.47;5010434;28;20285;-47
2021/12/29 14:21:46;;;;;;;0.37;0.17;;;;;;;13.48;100.00;98257.25;5009533;28;20077;-47
2021/12/29 14:24:50;;;;;;;5.20;1.42;;;;;;;13.39;100.00;98254.84;5009419;28;20053;-47
2021/12/29 14:27:54;;;;;;;1.65;0.95;;;;;;;13.23;100.00;98257.91;5015274;28;20145;-46
2021/12/29 14:31:02;;;;;;;0.50;0.50;;;;;;;13.10;100.00;98255.84;5014256;28;20304;-47
2021/12/29 14:34:08;;;;;;;1.40;0.65;;;;;;;12.95;100.00;98252.69;5023928;28;20076;-47
2021/12/29 14:37:15;;;;;;;0.20;0.10;;;;;;;12.83;100.00;98256.94;5013431;28;20505;-46
2021/12/29 14:40:25;;;;;;;3.95;0.50;;;;;;;12.80;100.00;98271.97;5007742;28;20065;-47
2021/12/29 14:43:28;;;;;;;2.55;0.88;;;;;;;12.87;100.00;98276.97;5008178;28;20076;-47
2021/12/29 14:46:33;;;;;;;3.40;0.63;;;;;;;12.89;100.00;98268.78;5013864;28;20053;-47